Terminal Aerodrome Forecast
Issued by NWS Brownsville, TX

Home | Current Version | Previous Version | Text Only | Print | Product List | Glossary On
Versions: 1 2 3 4 5 6 7 8 9 10 11 12 13 14 15 16 17 18 19 20 21 22 23 24 25 26 27 28 29 30 31 32 33 34 35 36 37 38 39 40 41 42 43
351
FTUS44 KBRO 161120
TAFMFE
TAF
KMFE 161120Z 1612/1712 17012G18KT P6SM BKN015 BKN250
     FM161400 20012KT P6SM SCT020 BKN250
     FM161700 25012KT P6SM FEW018 BKN250
     FM162000 33014G20KT P6SM FEW030 BKN250
     FM162300 36016G24KT P6SM BKN250=

USA.gov is the U.S. government's official web portal to all federal, state and local government web resources and services.